createdAt,value
2023-01-07T00:00:15.629Z,12.10
2023-01-07T00:04:17.109Z,12.10
2023-01-07T00:08:18.322Z,11.90
2023-01-07T00:12:19.501Z,11.90
2023-01-07T00:16:23.783Z,11.80
2023-01-07T00:20:24.894Z,12.00
2023-01-07T00:24:26.072Z,11.90
2023-01-07T00:28:27.355Z,12.00
2023-01-07T00:32:42.310Z,12.10
2023-01-07T00:36:45.490Z,12.30
2023-01-07T00:40:46.815Z,12.30
2023-01-07T00:44:47.967Z,12.30
2023-01-07T00:48:49.308Z,12.30
2023-01-07T00:52:50.600Z,12.20
2023-01-07T00:56:51.774Z,12.10
2023-01-07T01:00:57.702Z,12.10
2023-01-07T01:04:58.878Z,12.20
2023-01-07T01:09:00.016Z,11.90
2023-01-07T01:13:01.201Z,11.90
2023-01-07T01:17:02.576Z,12.00
2023-01-07T01:21:05.563Z,11.90
2023-01-07T01:25:07.671Z,12.00
2023-01-07T01:29:08.834Z,11.90
2023-01-07T01:33:10.119Z,12.00
2023-01-07T01:37:11.290Z,11.80
2023-01-07T01:41:15.802Z,11.80
2023-01-07T01:45:17.149Z,11.80
2023-01-07T01:49:31.231Z,12.10
2023-01-07T01:53:34.131Z,12.00
2023-01-07T01:57:37.072Z,11.70
2023-01-07T02:01:38.869Z,11.70
2023-01-07T02:05:41.929Z,11.90
2023-01-07T02:09:43.853Z,11.80
2023-01-07T02:13:48.784Z,11.90
2023-01-07T02:17:56.404Z,11.70
2023-01-07T02:22:07.631Z,11.70
2023-01-07T02:26:21.286Z,11.90
2023-01-07T02:30:44.171Z,12.10
2023-01-07T02:34:55.389Z,11.90
2023-01-07T02:39:00.359Z,12.00
2023-01-07T02:43:14.551Z,11.80
2023-01-07T02:47:19.528Z,12.00
2023-01-07T02:51:24.501Z,11.90
2023-01-07T02:55:48.932Z,12.00
2023-01-07T03:00:20.667Z,11.80
2023-01-07T03:04:51.220Z,11.70
2023-01-07T03:09:32.524Z,11.80
2023-01-07T03:13:37.448Z,11.60
2023-01-07T03:17:42.426Z,11.90
2023-01-07T03:21:45.584Z,11.80
2023-01-07T03:25:49.662Z,11.70
2023-01-07T03:29:52.362Z,12.00
2023-01-07T03:34:06.080Z,12.10
2023-01-07T03:38:08.932Z,12.20
2023-01-07T03:42:30.806Z,12.10
2023-01-07T03:46:34.254Z,12.20
2023-01-07T03:50:35.428Z,12.20
2023-01-07T03:54:36.496Z,11.90
2023-01-07T03:58:37.695Z,12.10
2023-01-07T04:02:38.885Z,12.00
2023-01-07T04:06:40.041Z,12.00
2023-01-07T04:10:41.238Z,12.10
2023-01-07T04:14:42.392Z,12.30
2023-01-07T04:18:43.563Z,12.20
2023-01-07T04:22:44.740Z,12.30
2023-01-07T04:26:45.911Z,12.30
2023-01-07T04:30:47.151Z,12.30
2023-01-07T04:34:48.298Z,12.20
2023-01-07T04:38:49.435Z,12.30
2023-01-07T04:42:50.623Z,12.30
2023-01-07T04:46:51.767Z,12.30
2023-01-07T04:50:52.853Z,12.30
2023-01-07T04:54:54.022Z,12.30
2023-01-07T04:58:55.197Z,12.30
2023-01-07T05:02:56.356Z,12.20
2023-01-07T05:06:57.523Z,12.10
2023-01-07T05:10:59.278Z,11.90
2023-01-07T05:15:04.201Z,11.80
2023-01-07T05:19:05.371Z,11.60
2023-01-07T05:23:06.969Z,11.50
2023-01-07T05:27:08.210Z,11.70
2023-01-07T05:31:09.434Z,11.80
2023-01-07T05:35:10.673Z,11.80
2023-01-07T05:39:11.837Z,11.70
2023-01-07T05:43:13.027Z,11.60
2023-01-07T05:47:14.197Z,11.50
2023-01-07T05:51:15.383Z,11.50
2023-01-07T05:55:17.000Z,11.50
2023-01-07T05:59:18.162Z,11.40
2023-01-07T06:03:20.629Z,11.40
2023-01-07T06:07:21.797Z,11.50
2023-01-07T06:11:22.885Z,11.60
2023-01-07T06:15:24.045Z,11.50
2023-01-07T06:19:26.544Z,11.50
2023-01-07T06:23:28.009Z,11.60
2023-01-07T06:27:29.172Z,11.60
2023-01-07T06:31:30.446Z,11.50
2023-01-07T06:35:32.019Z,11.50
2023-01-07T06:39:33.451Z,11.40
2023-01-07T06:43:34.525Z,11.40
2023-01-07T06:47:35.793Z,11.40
2023-01-07T06:51:36.979Z,11.30
2023-01-07T06:55:38.190Z,11.40
2023-01-07T06:59:39.349Z,11.30
2023-01-07T07:03:40.406Z,11.20
2023-01-07T07:07:41.583Z,11.30
2023-01-07T07:11:42.775Z,11.30
2023-01-07T07:15:43.975Z,11.20
2023-01-07T07:19:45.120Z,11.30
2023-01-07T07:23:46.250Z,11.30
2023-01-07T07:27:47.453Z,11.20
2023-01-07T07:31:48.555Z,11.40
2023-01-07T07:35:49.727Z,11.30
2023-01-07T07:39:50.856Z,11.40
2023-01-07T07:43:52.025Z,11.40
2023-01-07T07:47:53.211Z,11.30
2023-01-07T07:51:54.650Z,11.40
2023-01-07T07:55:55.920Z,11.40
2023-01-07T07:59:57.588Z,11.40
2023-01-07T08:03:58.748Z,11.50
2023-01-07T08:07:59.929Z,11.50
2023-01-07T08:12:01.211Z,11.50
2023-01-07T08:16:02.503Z,11.50
2023-01-07T08:20:04.937Z,11.40
2023-01-07T08:24:06.351Z,11.50
2023-01-07T08:28:10.286Z,11.50
2023-01-07T08:32:11.456Z,11.50
2023-01-07T08:36:22.488Z,11.40
2023-01-07T08:40:15.601Z,11.60
2023-01-07T08:44:16.781Z,11.60
2023-01-07T08:48:18.245Z,11.60
2023-01-07T08:52:20.907Z,11.60
2023-01-07T08:56:22.202Z,11.70
2023-01-07T09:00:23.983Z,11.60
2023-01-07T09:04:25.148Z,11.50
2023-01-07T09:08:26.409Z,11.40
2023-01-07T09:12:27.577Z,11.30
2023-01-07T09:16:28.797Z,11.40
2023-01-07T09:20:30.359Z,11.60
2023-01-07T09:24:31.557Z,11.40
2023-01-07T09:28:32.821Z,11.40
2023-01-07T09:32:34.315Z,11.70
2023-01-07T09:36:35.477Z,11.70
2023-01-07T09:40:39.128Z,11.70
2023-01-07T09:45:00.865Z,11.60
2023-01-07T09:49:03.332Z,11.60
2023-01-07T09:53:08.323Z,11.80
2023-01-07T09:57:13.298Z,12.00
2023-01-07T10:01:43.954Z,12.00
2023-01-07T10:05:54.872Z,11.80
2023-01-07T10:10:15.068Z,11.60
2023-01-07T10:14:23.079Z,11.70
2023-01-07T10:18:46.430Z,11.80
2023-01-07T10:23:09.770Z,11.90
2023-01-07T10:27:13.646Z,12.00
2023-01-07T10:31:17.763Z,12.20
2023-01-07T10:35:21.503Z,12.40
2023-01-07T10:39:45.671Z,12.50
2023-01-07T10:43:56.342Z,12.40
2023-01-07T10:48:20.756Z,12.60
2023-01-07T10:52:47.156Z,12.90
2023-01-07T10:56:52.142Z,12.60
2023-01-07T11:00:53.515Z,12.50
2023-01-07T11:04:56.160Z,12.50
2023-01-07T11:08:57.330Z,12.50
2023-01-07T11:13:05.128Z,12.60
2023-01-07T11:17:10.106Z,12.50
2023-01-07T11:21:42.774Z,12.60
2023-01-07T11:25:27.706Z,12.50
2023-01-07T11:29:35.638Z,12.50
2023-01-07T11:34:01.755Z,12.50
2023-01-07T11:37:47.118Z,12.60
2023-01-07T11:41:54.788Z,12.80
2023-01-07T11:46:19.345Z,12.80
2023-01-07T11:50:02.460Z,12.80
2023-01-07T11:54:03.661Z,12.80
2023-01-07T11:58:28.622Z,12.70
2023-01-07T12:02:26.263Z,12.50
2023-01-07T12:06:33.862Z,12.40
2023-01-07T12:10:37.369Z,12.60
2023-01-07T12:14:40.628Z,12.60
2023-01-07T12:19:08.470Z,12.70
2023-01-07T12:23:17.263Z,12.60
2023-01-07T12:27:46.135Z,12.30
2023-01-07T12:32:00.318Z,12.40
2023-01-07T12:36:11.583Z,12.50
2023-01-07T12:40:16.557Z,12.60
2023-01-07T12:44:22.055Z,12.70
2023-01-07T12:48:44.033Z,12.70
2023-01-07T12:52:49.009Z,12.80
2023-01-07T12:56:56.978Z,12.70
2023-01-07T13:01:10.781Z,12.50
2023-01-07T13:05:15.779Z,12.30
2023-01-07T13:09:46.947Z,12.30
2023-01-07T13:13:51.919Z,12.40
2023-01-07T13:17:56.105Z,12.60
2023-01-07T13:21:57.373Z,12.70
2023-01-07T13:26:36.219Z,12.50
2023-01-07T13:30:47.328Z,12.50
2023-01-07T13:34:58.099Z,12.60
2023-01-07T13:39:17.801Z,12.50
2023-01-07T13:43:40.787Z,13.00
2023-01-07T13:47:51.939Z,13.30
2023-01-07T13:51:54.347Z,12.90
2023-01-07T13:56:17.779Z,13.00
2023-01-07T14:00:47.851Z,12.90
2023-01-07T14:05:11.057Z,12.70
2023-01-07T14:09:25.168Z,12.60
2023-01-07T14:13:46.737Z,12.50
2023-01-07T14:18:09.561Z,12.40
2023-01-07T14:22:17.723Z,12.60
2023-01-07T14:26:25.873Z,12.70
2023-01-07T14:30:33.908Z,12.60
2023-01-07T14:34:35.136Z,12.60
2023-01-07T14:38:41.344Z,12.90
2023-01-07T14:42:44.152Z,12.70
2023-01-07T14:46:47.412Z,12.40
2023-01-07T14:50:52.644Z,12.30
2023-01-07T14:55:03.766Z,12.30
2023-01-07T14:59:20.753Z,12.20
2023-01-07T15:03:40.652Z,12.00
2023-01-07T15:07:44.669Z,12.00
2023-01-07T15:12:07.244Z,12.00
2023-01-07T15:16:11.104Z,12.00
2023-01-07T15:20:12.835Z,12.20
2023-01-07T15:24:30.220Z,12.10
2023-01-07T15:28:41.683Z,12.10
2023-01-07T15:33:03.769Z,11.90
2023-01-07T15:37:06.825Z,11.90
2023-01-07T15:41:29.989Z,11.90
2023-01-07T15:45:31.325Z,12.00
2023-01-07T15:49:34.223Z,12.00
2023-01-07T15:53:35.382Z,12.00
2023-01-07T15:57:36.656Z,11.80
2023-01-07T16:01:47.195Z,11.80
2023-01-07T16:05:48.864Z,11.70
2023-01-07T16:09:50.942Z,11.70
2023-01-07T16:14:01.373Z,11.90
2023-01-07T16:18:14.116Z,12.00
2023-01-07T16:22:18.274Z,12.10
2023-01-07T16:26:24.168Z,11.90
2023-01-07T16:30:25.724Z,11.70
2023-01-07T16:34:30.731Z,11.70
2023-01-07T16:38:35.827Z,11.80
2023-01-07T16:42:37.137Z,11.80
2023-01-07T16:46:41.434Z,11.60
2023-01-07T16:50:44.458Z,11.60
2023-01-07T16:54:46.998Z,11.50
2023-01-07T16:58:54.692Z,11.30
2023-01-07T17:03:01.703Z,11.40
2023-01-07T17:07:04.247Z,11.30
2023-01-07T17:11:08.995Z,11.30
2023-01-07T17:15:35.113Z,11.20
2023-01-07T17:19:39.609Z,11.00
2023-01-07T17:23:42.078Z,10.80
2023-01-07T17:27:52.880Z,10.80
2023-01-07T17:31:54.078Z,10.60
2023-01-07T17:35:56.816Z,10.40
2023-01-07T17:39:57.983Z,10.20
2023-01-07T17:43:59.770Z,10.30
2023-01-07T17:48:01.074Z,10.40
2023-01-07T17:52:02.251Z,10.50
2023-01-07T17:56:03.630Z,10.40
2023-01-07T18:00:06.471Z,10.50
2023-01-07T18:04:07.633Z,10.60
2023-01-07T18:08:09.298Z,10.40
2023-01-07T18:12:31.064Z,10.50
2023-01-07T18:16:32.990Z,10.40
2023-01-07T18:20:34.221Z,10.30
2023-01-07T18:24:35.508Z,10.40
2023-01-07T18:28:36.704Z,10.20
2023-01-07T18:32:37.866Z,10.30
2023-01-07T18:36:39.427Z,10.40
2023-01-07T18:40:41.305Z,10.30
2023-01-07T18:44:42.548Z,10.20
2023-01-07T18:48:44.328Z,10.20
2023-01-07T18:52:45.471Z,10.40
2023-01-07T18:56:46.562Z,10.30
2023-01-07T19:00:47.733Z,10.30
2023-01-07T19:04:49.392Z,10.30
2023-01-07T19:08:50.531Z,10.20
2023-01-07T19:12:52.301Z,10.00
2023-01-07T19:16:54.430Z,10.10
2023-01-07T19:20:55.636Z,10.30
2023-01-07T19:24:56.917Z,10.40
2023-01-07T19:28:58.054Z,10.40
2023-01-07T19:33:00.215Z,10.30
2023-01-07T19:37:04.095Z,10.20
2023-01-07T19:41:11.280Z,10.20
2023-01-07T19:45:12.472Z,10.30
2023-01-07T19:49:13.629Z,10.30
2023-01-07T19:53:14.840Z,10.20
2023-01-07T19:57:16.000Z,10.20
2023-01-07T20:01:18.533Z,10.30
2023-01-07T20:05:19.676Z,10.30
2023-01-07T20:09:21.391Z,10.40
2023-01-07T20:13:22.573Z,10.40
2023-01-07T20:17:24.359Z,10.50
2023-01-07T20:21:26.075Z,10.50
2023-01-07T20:25:27.232Z,10.60
2023-01-07T20:29:28.459Z,10.60
2023-01-07T20:33:29.653Z,10.60
2023-01-07T20:37:30.834Z,10.60
2023-01-07T20:41:33.634Z,10.60
2023-01-07T20:45:38.168Z,10.50
2023-01-07T20:49:38.942Z,10.50
2023-01-07T20:53:40.840Z,10.50
2023-01-07T20:57:42.020Z,10.40
2023-01-07T21:01:43.313Z,10.50
2023-01-07T21:05:45.397Z,10.50
2023-01-07T21:09:46.629Z,10.50
2023-01-07T21:13:49.109Z,10.70
2023-01-07T21:17:53.107Z,11.00
2023-01-07T21:21:54.269Z,11.10
2023-01-07T21:25:55.476Z,11.30
2023-01-07T21:29:56.780Z,11.40
2023-01-07T21:33:58.051Z,11.50
2023-01-07T21:37:59.219Z,11.60
2023-01-07T21:42:01.502Z,11.70
2023-01-07T21:46:04.848Z,11.60
2023-01-07T21:50:06.204Z,11.60
2023-01-07T21:54:08.509Z,11.80
2023-01-07T21:58:09.690Z,11.70
2023-01-07T22:02:12.151Z,11.80
2023-01-07T22:06:22.734Z,11.80
2023-01-07T22:10:25.857Z,11.90
2023-01-07T22:14:27.628Z,11.80
2023-01-07T22:18:28.803Z,11.80
2023-01-07T22:22:29.970Z,11.90
2023-01-07T22:26:31.162Z,12.10
2023-01-07T22:30:34.157Z,12.10
2023-01-07T22:34:35.357Z,12.10
2023-01-07T22:38:37.818Z,12.00
2023-01-07T22:42:42.757Z,12.00
2023-01-07T22:46:47.352Z,12.10
2023-01-07T22:50:50.526Z,12.10
2023-01-07T22:54:51.959Z,12.00
2023-01-07T22:58:53.214Z,11.90
2023-01-07T23:02:54.420Z,12.00
2023-01-07T23:06:55.523Z,11.90
2023-01-07T23:10:56.885Z,11.90
2023-01-07T23:14:58.030Z,11.60
2023-01-07T23:18:59.112Z,11.80
2023-01-07T23:23:00.256Z,11.70
2023-01-07T23:27:02.293Z,11.70
2023-01-07T23:31:03.477Z,11.70
2023-01-07T23:35:05.209Z,11.40
2023-01-07T23:39:06.342Z,11.20
2023-01-07T23:43:07.516Z,11.10
2023-01-07T23:47:08.677Z,11.10
2023-01-07T23:51:15.563Z,11.20
2023-01-07T23:55:16.734Z,11.20
2023-01-07T23:59:18.212Z,11.40
